createdAt,value
2022-09-23T00:03:37.620Z,12.80
2022-09-23T00:08:42.932Z,16.00
2022-09-23T00:13:50.403Z,27.40
2022-09-23T00:18:54.679Z,24.60
2022-09-23T00:23:58.750Z,14.60
2022-09-23T00:29:02.740Z,21.60
2022-09-23T00:34:06.764Z,12.20
2022-09-23T00:39:10.905Z,8.50
2022-09-23T00:44:47.487Z,8.70
2022-09-23T00:50:23.695Z,5.80
2022-09-23T00:55:44.346Z,7.00
2022-09-23T01:00:48.835Z,8.20
2022-09-23T01:05:53.641Z,6.30
2022-09-23T01:11:01.609Z,5.40
2022-09-23T01:16:13.844Z,9.70
2022-09-23T01:21:57.791Z,7.50
2022-09-23T01:27:25.574Z,6.10
2022-09-23T01:32:56.640Z,6.50
2022-09-23T01:38:08.660Z,8.30
2022-09-23T01:43:36.027Z,11.50
2022-09-23T01:48:55.311Z,12.20
2022-09-23T01:54:16.555Z,12.50
2022-09-23T01:59:38.499Z,14.20
2022-09-23T02:05:18.876Z,14.80
2022-09-23T02:15:57.323Z,16.80
2022-09-23T02:21:07.718Z,16.90
2022-09-23T02:26:31.424Z,13.20
2022-09-23T02:32:02.214Z,13.30
2022-09-23T02:37:39.686Z,16.10
2022-09-23T02:43:13.619Z,14.90
2022-09-23T02:48:25.024Z,17.00
2022-09-23T02:53:34.472Z,16.70
2022-09-23T02:58:38.042Z,21.90
2022-09-23T03:03:50.331Z,28.70
2022-09-23T03:09:13.908Z,26.40
2022-09-23T03:14:45.279Z,18.30
2022-09-23T03:20:04.997Z,14.50
2022-09-23T03:25:17.859Z,18.20
2022-09-23T03:30:22.197Z,23.60
2022-09-23T03:35:32.157Z,29.80
2022-09-23T03:40:43.856Z,27.20
2022-09-23T03:45:48.539Z,27.40
2022-09-23T03:50:55.050Z,27.20
2022-09-23T03:55:58.974Z,9.60
2022-09-23T04:01:02.978Z,32.00
2022-09-23T04:06:07.444Z,45.50
2022-09-23T04:11:12.094Z,34.00
2022-09-23T04:16:16.268Z,58.30
2022-09-23T04:21:20.249Z,41.50
2022-09-23T04:26:23.983Z,21.00
2022-09-23T04:31:29.240Z,28.30
2022-09-23T04:36:33.364Z,40.50
2022-09-23T04:41:40.288Z,27.60
2022-09-23T04:46:48.530Z,35.30
2022-09-23T04:51:52.923Z,28.50
2022-09-23T04:56:59.304Z,40.50
2022-09-23T05:02:03.192Z,25.70
2022-09-23T05:07:06.854Z,40.50
2022-09-23T05:12:10.885Z,33.30
2022-09-23T05:17:15.064Z,33.80
2022-09-23T05:22:18.736Z,51.40
2022-09-23T05:27:22.769Z,34.40
2022-09-23T05:32:26.894Z,19.60
2022-09-23T05:37:31.958Z,47.80
2022-09-23T05:42:36.186Z,38.70
2022-09-23T05:47:40.423Z,26.20
2022-09-23T05:52:44.342Z,38.40
2022-09-23T05:57:48.387Z,28.00
2022-09-23T06:02:52.444Z,22.30
2022-09-23T06:07:57.304Z,47.30
2022-09-23T06:13:01.473Z,28.50
2022-09-23T06:18:06.937Z,23.00
2022-09-23T06:23:12.115Z,33.50
2022-09-23T06:28:15.971Z,29.10
2022-09-23T06:33:29.661Z,25.10
2022-09-23T06:38:45.223Z,26.70
2022-09-23T06:43:49.414Z,30.70
2022-09-23T06:48:53.235Z,22.20
2022-09-23T06:53:57.169Z,30.40
2022-09-23T06:59:00.884Z,26.00
2022-09-23T07:04:04.882Z,24.90
2022-09-23T07:09:10.130Z,32.10
2022-09-23T07:14:14.794Z,29.50
2022-09-23T07:19:18.707Z,23.10
2022-09-23T07:24:23.411Z,31.40
2022-09-23T07:29:27.059Z,25.80
2022-09-23T07:34:30.695Z,21.90
2022-09-23T07:39:34.343Z,21.90
2022-09-23T07:44:38.179Z,18.60
2022-09-23T07:49:42.306Z,19.20
2022-09-23T07:54:48.657Z,16.80
2022-09-23T07:59:52.716Z,21.90
2022-09-23T08:04:56.644Z,24.00
2022-09-23T08:10:01.474Z,22.70
2022-09-23T08:15:07.015Z,21.40
2022-09-23T08:20:31.966Z,14.70
2022-09-23T08:25:35.897Z,9.60
2022-09-23T08:30:40.697Z,18.90
2022-09-23T08:35:45.068Z,22.10
2022-09-23T08:40:50.721Z,17.30
2022-09-23T08:46:01.182Z,17.10
2022-09-23T08:51:11.865Z,21.40
2022-09-23T08:56:22.826Z,18.40
2022-09-23T09:01:48.098Z,15.40
2022-09-23T09:07:36.582Z,15.80
2022-09-23T09:12:47.488Z,10.20
2022-09-23T09:18:00.125Z,13.60
2022-09-23T09:23:23.578Z,13.30
2022-09-23T09:28:46.936Z,15.30
2022-09-23T09:34:12.586Z,28.10
2022-09-23T09:39:17.749Z,42.80
2022-09-23T09:44:42.672Z,22.80
2022-09-23T09:50:07.783Z,18.40
2022-09-23T09:55:14.680Z,9.20
2022-09-23T10:00:43.604Z,6.00
2022-09-23T10:05:47.298Z,8.70
2022-09-23T10:11:11.813Z,8.80
2022-09-23T10:16:16.221Z,7.00
2022-09-23T10:21:27.883Z,8.80
2022-09-23T10:26:41.732Z,9.00
2022-09-23T10:31:45.941Z,3.40
2022-09-23T10:37:34.622Z,3.10
2022-09-23T10:43:38.256Z,10.40
2022-09-23T10:49:38.197Z,9.90
2022-09-23T10:55:24.514Z,3.20
2022-09-23T11:01:04.630Z,1.90
2022-09-23T11:07:07.970Z,2.60
2022-09-23T11:12:54.318Z,3.60
2022-09-23T11:18:36.058Z,2.90
2022-09-23T11:24:48.488Z,34.50
2022-09-23T11:30:20.532Z,76.40
2022-09-23T11:35:42.130Z,109.20
2022-09-23T11:40:55.108Z,55.60
2022-09-23T11:46:21.686Z,19.30
2022-09-23T11:51:29.949Z,158.90
2022-09-23T11:56:49.190Z,166.70
2022-09-23T12:02:17.917Z,182.40
2022-09-23T12:07:54.760Z,89.30
2022-09-23T12:13:19.498Z,155.80
2022-09-23T12:18:46.432Z,86.60
2022-09-23T12:24:05.847Z,128.70
2022-09-23T12:29:15.577Z,92.70
2022-09-23T12:34:52.486Z,113.40
2022-09-23T12:40:06.952Z,386.90
2022-09-23T12:45:36.157Z,701.60
2022-09-23T12:51:16.864Z,200.20
2022-09-23T12:56:43.937Z,164.60
2022-09-23T13:01:48.950Z,66.90
2022-09-23T13:07:45.864Z,50.30
2022-09-23T13:12:53.042Z,36.30
2022-09-23T13:18:21.873Z,16.40
2022-09-23T13:23:33.717Z,40.60
2022-09-23T13:28:54.244Z,92.80
2022-09-23T13:34:07.251Z,27.30
2022-09-23T13:39:25.226Z,34.20
2022-09-23T13:44:30.150Z,25.20
2022-09-23T13:49:37.428Z,14.20
2022-09-23T13:54:51.374Z,10.50
2022-09-23T13:59:55.423Z,3.00
2022-09-23T14:04:59.522Z,4.60
2022-09-23T14:10:07.203Z,4.10
2022-09-23T14:15:19.375Z,3.40
2022-09-23T14:20:23.834Z,414.80
2022-09-23T14:25:30.358Z,383.30
2022-09-23T14:30:35.602Z,674.80
2022-09-23T14:35:46.875Z,106.50
2022-09-23T14:41:18.272Z,39.10
2022-09-23T14:46:25.490Z,16.40
2022-09-23T14:51:36.401Z,40.30
2022-09-23T14:56:44.240Z,11.60
2022-09-23T15:01:48.313Z,18.60
2022-09-23T15:07:18.218Z,19.80
2022-09-23T15:12:23.093Z,13.40
2022-09-23T15:17:38.186Z,93.80
2022-09-23T15:22:48.958Z,74.00
2022-09-23T15:28:13.050Z,25.20
2022-09-23T15:33:18.484Z,16.60
2022-09-23T15:38:24.651Z,195.70
2022-09-23T15:43:35.032Z,82.80
2022-09-23T15:49:05.288Z,74.10
2022-09-23T15:54:15.939Z,271.10
2022-09-23T15:59:22.096Z,323.40
2022-09-23T16:04:26.556Z,621.10
2022-09-23T16:09:32.030Z,317.90
2022-09-23T16:14:36.041Z,268.00
2022-09-23T16:19:40.771Z,128.80
2022-09-23T16:24:47.862Z,163.20
2022-09-23T16:29:52.329Z,106.40
2022-09-23T16:34:59.022Z,43.20
2022-09-23T16:40:04.576Z,40.90
2022-09-23T16:45:10.443Z,27.40
2022-09-23T16:50:17.683Z,39.20
2022-09-23T16:55:22.400Z,59.40
2022-09-23T17:00:45.700Z,192.70
2022-09-23T17:05:50.972Z,329.00
2022-09-23T17:10:59.412Z,281.60
2022-09-23T17:16:03.656Z,213.00
2022-09-23T17:21:37.350Z,208.90
2022-09-23T17:26:42.753Z,259.70
2022-09-23T17:31:47.173Z,408.30
2022-09-23T17:36:51.163Z,763.10
2022-09-23T17:41:58.863Z,647.10
2022-09-23T17:47:04.129Z,497.80
2022-09-23T17:52:08.252Z,194.10
2022-09-23T17:57:13.524Z,129.80
2022-09-23T18:02:17.774Z,104.80
2022-09-23T18:07:25.663Z,128.00
2022-09-23T18:12:36.682Z,110.70
2022-09-23T18:17:42.153Z,90.00
2022-09-23T18:22:46.033Z,75.10
2022-09-23T18:27:49.914Z,71.20
2022-09-23T18:32:53.916Z,69.30
2022-09-23T18:37:59.681Z,102.90
2022-09-23T18:43:04.550Z,115.20
2022-09-23T18:48:28.844Z,282.20
2022-09-23T18:53:36.411Z,608.20
2022-09-23T18:58:53.035Z,649.40
2022-09-23T19:03:58.515Z,357.10
2022-09-23T19:09:03.905Z,223.30
2022-09-23T19:14:22.602Z,214.00
2022-09-23T19:19:30.652Z,212.30
2022-09-23T19:24:34.536Z,193.30
2022-09-23T19:29:41.254Z,190.30
2022-09-23T19:34:46.775Z,215.10
2022-09-23T19:39:51.113Z,217.40
2022-09-23T19:44:55.519Z,244.20
2022-09-23T19:49:59.304Z,258.10
2022-09-23T19:55:04.812Z,318.00
2022-09-23T20:00:10.287Z,250.60
2022-09-23T20:05:18.420Z,330.80
2022-09-23T20:10:24.239Z,355.80
2022-09-23T20:15:29.657Z,355.60
2022-09-23T20:20:33.906Z,305.80
2022-09-23T20:26:06.205Z,280.90
2022-09-23T20:31:16.858Z,226.30
2022-09-23T20:36:20.940Z,252.70
2022-09-23T20:41:27.009Z,271.30
2022-09-23T20:46:32.286Z,261.70
2022-09-23T20:51:37.710Z,205.20
2022-09-23T20:56:41.935Z,187.80
2022-09-23T21:01:46.183Z,203.70
2022-09-23T21:06:50.199Z,238.90
2022-09-23T21:11:55.446Z,434.10
2022-09-23T21:17:00.010Z,442.00
2022-09-23T21:22:04.431Z,596.90
2022-09-23T21:27:08.420Z,410.70
2022-09-23T21:32:12.190Z,392.40
2022-09-23T21:37:16.010Z,356.90
2022-09-23T21:42:21.989Z,291.60
2022-09-23T21:47:26.407Z,331.10
2022-09-23T21:52:30.551Z,295.40
2022-09-23T21:57:34.313Z,332.30
2022-09-23T22:02:40.312Z,174.90
2022-09-23T22:07:43.969Z,226.60
2022-09-23T22:12:50.469Z,278.20
2022-09-23T22:17:54.280Z,291.80
2022-09-23T22:22:57.908Z,322.40
2022-09-23T22:28:20.876Z,317.00
2022-09-23T22:33:24.598Z,273.90
2022-09-23T22:38:28.729Z,199.70
2022-09-23T22:43:34.091Z,180.10
2022-09-23T22:48:37.808Z,213.40
2022-09-23T22:53:41.742Z,135.40
2022-09-23T22:58:45.865Z,133.60
2022-09-23T23:03:54.170Z,77.90
2022-09-23T23:09:00.275Z,68.40
2022-09-23T23:14:04.636Z,71.80
2022-09-23T23:19:13.966Z,70.10
2022-09-23T23:24:24.753Z,90.60
2022-09-23T23:29:28.578Z,83.30
2022-09-23T23:34:32.812Z,109.40
2022-09-23T23:39:36.743Z,95.20
2022-09-23T23:44:40.759Z,86.40
2022-09-23T23:49:44.804Z,80.90
2022-09-23T23:54:48.825Z,62.90
2022-09-23T23:59:52.654Z,86.30
